Time;durP1;ratioP1;P1;durP2;ratioP2;P2;SDS_P1;SDS_P2;PMS_P1;PMS_P2;Temp;Humidity;BMP_temperature;BMP_pressure;BME280_temperature;BME280_humidity;BME280_pressure;Samples;Min_cycle;Max_cycle;Signal;HPM_P1;HPM_P2
2022/09/06 00:01:09;;;;;;;3.83;1.55;;;;;;;;;;5074822;28;20045;-51
2022/09/06 00:03:40;;;;;;;;;;;;;;;;;;5075315;28;20131;-52
2022/09/06 00:06:11;;;;;;;5.32;2.25;;;;;;;;;;5074283;28;20329;-50
2022/09/06 00:08:41;;;;;;;6.40;2.15;;;;;;;;;;5073899;28;20067;-52
2022/09/06 00:11:11;;;;;;;4.20;2.13;;;;;;;;;;5073469;28;20064;-49
2022/09/06 00:16:23;;;;;;;4.50;2.00;;;;;;;;;;5074873;28;20346;-49
2022/09/06 00:19:00;;;;;;;3.70;1.90;;;;;;;;;;5074773;28;20044;-49
2022/09/06 00:21:36;;;;;;;5.25;1.70;;;;;;;;;;5074728;28;20492;-49
2022/09/06 00:24:05;;;;;;;3.38;1.63;;;;;;;;;;5074634;28;20058;-49
2022/09/06 00:26:36;;;;;;;4.50;1.77;;;;;;;;;;5068761;28;20052;-48
2022/09/06 00:29:06;;;;;;;4.22;2.08;;;;;;;;;;5074891;28;20048;-49
2022/09/06 00:31:50;;;;;;;4.13;1.67;;;;;;;;;;5074875;28;20045;-50
2022/09/06 00:34:20;;;;;;;3.50;1.85;;;;;;;;;;5074543;28;20139;-50
2022/09/06 00:36:50;;;;;;;3.90;1.80;;;;;;;;;;5074610;28;20127;-49
2022/09/06 00:39:20;;;;;;;4.97;2.33;;;;;;;;;;5072573;28;20056;-49
2022/09/06 00:41:50;;;;;;;5.47;2.15;;;;;;;;;;5054584;28;20100;-49
2022/09/06 00:44:20;;;;;;;2.95;1.73;;;;;;;;;;5054701;28;20177;-48
2022/09/06 00:46:51;;;;;;;3.22;1.50;;;;;;;;;;5054595;28;20056;-51
2022/09/06 00:52:11;;;;;;;3.42;1.65;;;;;;;;;;5055408;28;20088;-49
2022/09/06 00:54:47;;;;;;;3.75;1.42;;;;;;;;;;5074124;28;20052;-49
2022/09/06 00:57:25;;;;;;;1.85;0.93;;;;;;;;;;5073974;28;20668;-49
2022/09/06 01:00:03;;;;;;;3.97;1.30;;;;;;;;;;5074130;28;20436;-49
2022/09/06 01:02:46;;;;;;;3.95;1.27;;;;;;;;;;5074087;28;20048;-49
2022/09/06 01:05:15;;;;;;;1.90;0.90;;;;;;;;;;5073937;28;20064;-51
2022/09/06 01:07:51;;;;;;;3.10;1.55;;;;;;;;;;5073744;28;20372;-50
2022/09/06 01:10:27;;;;;;;3.85;0.98;;;;;;;;;;5073365;28;20078;-50
2022/09/06 01:13:03;;;;;;;2.90;1.58;;;;;;;;;;5073674;28;20044;-49
2022/09/06 01:15:44;;;;;;;4.57;1.80;;;;;;;;;;5053585;28;20049;-51
2022/09/06 01:18:23;;;;;;;4.43;2.00;;;;;;;;;;5053664;28;20532;-49
2022/09/06 01:21:11;;;;;;;4.43;1.67;;;;;;;;;;5053274;28;20049;-49
2022/09/06 01:24:05;;;;;;;4.20;1.88;;;;;;;;;;5053725;28;20053;-49
2022/09/06 01:26:54;;;;;;;5.20;2.05;;;;;;;;;;5049893;28;20052;-49
2022/09/06 01:29:33;;;;;;;4.75;2.28;;;;;;;;;;5073484;28;20110;-49
2022/09/06 01:32:04;;;;;;;4.32;2.30;;;;;;;;;;5073197;28;20041;-50
2022/09/06 01:34:35;;;;;;;6.28;2.42;;;;;;;;;;5073909;28;20053;-49
2022/09/06 01:37:09;;;;;;;4.30;2.15;;;;;;;;;;5073188;28;20484;-50
2022/09/06 01:39:46;;;;;;;7.07;2.33;;;;;;;;;;5068480;28;20045;-49
2022/09/06 01:42:23;;;;;;;5.00;2.35;;;;;;;;;;5053340;28;20211;-49
2022/09/06 01:45:09;;;;;;;3.00;1.80;;;;;;;;;;5053257;28;20497;-48
2022/09/06 01:47:44;;;;;;;3.40;1.98;;;;;;;;;;5053322;28;20053;-50
2022/09/06 01:50:29;;;;;;;4.43;2.10;;;;;;;;;;5053126;28;20122;-49
2022/09/06 01:53:13;;;;;;;4.82;2.17;;;;;;;;;;5061141;28;20136;-49
2022/09/06 01:55:50;;;;;;;9.55;2.35;;;;;;;;;;5073343;28;20055;-49
2022/09/06 01:58:36;;;;;;;5.70;2.60;;;;;;;;;;5073277;28;20048;-49
2022/09/06 02:01:13;;;;;;;5.35;2.80;;;;;;;;;;5073400;28;20048;-49
2022/09/06 02:03:50;;;;;;;6.13;2.40;;;;;;;;;;5073329;28;20045;-50
2022/09/06 02:06:28;;;;;;;6.13;2.55;;;;;;;;;;5072908;28;20127;-50
2022/09/06 02:11:43;;;;;;;6.55;2.53;;;;;;;;;;5072362;28;20368;-50
2022/09/06 02:14:16;;;;;;;6.32;2.80;;;;;;;;;;5073376;28;20048;-48
2022/09/06 02:17:01;;;;;;;5.65;2.78;;;;;;;;;;5072766;28;20420;-48
2022/09/06 02:19:33;;;;;;;5.85;2.85;;;;;;;;;;5072893;28;20135;-50
2022/09/06 02:22:12;;;;;;;6.35;2.80;;;;;;;;;;5072878;28;20048;-51
2022/09/06 02:24:44;;;;;;;6.85;3.22;;;;;;;;;;5072620;28;20048;-51
2022/09/06 02:27:15;;;;;;;6.85;2.90;;;;;;;;;;5070429;28;20067;-51
2022/09/06 02:29:45;;;;;;;5.78;3.25;;;;;;;;;;5072686;28;20432;-51
2022/09/06 02:32:20;;;;;;;8.55;3.15;;;;;;;;;;5073440;28;20049;-49
2022/09/06 02:34:50;;;;;;;7.35;2.88;;;;;;;;;;5076296;28;20052;-52
2022/09/06 02:37:20;;;;;;;6.50;2.80;;;;;;;;;;5076405;28;20132;-50
2022/09/06 02:39:57;;;;;;;7.25;2.92;;;;;;;;;;5070691;28;20048;-48
2022/09/06 02:42:26;;;;;;;5.20;2.58;;;;;;;;;;5056793;28;20049;-49
2022/09/06 02:44:57;;;;;;;7.15;2.80;;;;;;;;;;5056816;28;20052;-49
2022/09/06 02:47:38;;;;;;;7.88;2.63;;;;;;;;;;5056452;28;20469;-49
2022/09/06 02:50:11;;;;;;;5.55;2.85;;;;;;;;;;5056429;28;20053;-49
2022/09/06 02:52:42;;;;;;;6.18;2.33;;;;;;;;;;5062385;28;20053;-50
2022/09/06 02:55:10;;;;;;;3.88;1.92;;;;;;;;;;5056136;28;20533;-48
2022/09/06 02:57:40;;;;;;;4.75;2.20;;;;;;;;;;5056558;28;20044;-49
2022/09/06 03:00:08;;;;;;;3.70;2.42;;;;;;;;;;5070965;28;20071;-50
2022/09/06 03:02:52;;;;;;;4.50;1.75;;;;;;;;;;5075272;28;20132;-50
2022/09/06 03:05:22;;;;;;;3.72;1.80;;;;;;;;;;5076485;28;20131;-52
2022/09/06 03:07:59;;;;;;;4.85;2.20;;;;;;;;;;5076239;28;20049;-50
2022/09/06 03:10:29;;;;;;;4.20;2.03;;;;;;;;;;5075316;28;20068;-50
2022/09/06 03:12:58;;;;;;;4.13;1.98;;;;;;;;;;5076297;28;20127;-49
2022/09/06 03:15:26;;;;;;;3.85;1.83;;;;;;;;;;5075793;28;20604;-50
2022/09/06 03:18:01;;;;;;;5.70;2.00;;;;;;;;;;5075720;28;20056;-50
2022/09/06 03:20:30;;;;;;;4.67;2.47;;;;;;;;;;5075581;28;20099;-49
2022/09/06 03:23:01;;;;;;;4.88;2.05;;;;;;;;;;5075653;28;20048;-49
2022/09/06 03:25:28;;;;;;;4.13;1.80;;;;;;;;;;5072829;28;20049;-49
2022/09/06 03:27:59;;;;;;;3.08;1.50;;;;;;;;;;5075192;28;20044;-49
2022/09/06 03:33:17;;;;;;;5.25;1.88;;;;;;;;;;5064360;28;20059;-49
2022/09/06 03:35:47;;;;;;;3.63;1.50;;;;;;;;;;5059003;28;20635;-49
2022/09/06 03:38:15;;;;;;;4.45;1.60;;;;;;;;;;5075378;28;20067;-49
2022/09/06 03:40:46;;;;;;;14.32;2.20;;;;;;;;;;5061850;28;20075;-49
2022/09/06 03:43:17;;;;;;;3.90;2.30;;;;;;;;;;5054914;28;20059;-51
2022/09/06 03:45:55;;;;;;;2.20;1.48;;;;;;;;;;5055014;28;20090;-49
2022/09/06 03:48:30;;;;;;;4.38;1.55;;;;;;;;;;5055409;28;20065;-50
2022/09/06 03:51:06;;;;;;;4.70;1.85;;;;;;;;;;5055210;28;20052;-50
2022/09/06 03:53:36;;;;;;;4.85;1.77;;;;;;;;;;5068342;28;20045;-51
2022/09/06 03:56:06;;;;;;;4.00;2.08;;;;;;;;;;5074259;28;20504;-51
2022/09/06 03:58:36;;;;;;;3.88;1.85;;;;;;;;;;5075473;28;20079;-52
2022/09/06 04:01:07;;;;;;;7.53;1.90;;;;;;;;;;5075201;28;20388;-52
2022/09/06 04:03:49;;;;;;;5.47;1.85;;;;;;;;;;5074683;28;20510;-49
2022/09/06 04:09:00;;;;;;;5.95;2.00;;;;;;;;;;5074999;28;20380;-49
2022/09/06 04:11:30;;;;;;;14.50;2.70;;;;;;;;;;5074470;28;20551;-49
2022/09/06 04:13:58;;;;;;;6.40;2.00;;;;;;;;;;5075242;28;20055;-51
2022/09/06 04:16:28;;;;;;;7.22;1.92;;;;;;;;;;5075216;28;20044;-50
2022/09/06 04:19:11;;;;;;;5.38;1.60;;;;;;;;;;5075409;28;20052;-51
2022/09/06 04:21:41;;;;;;;5.30;2.15;;;;;;;;;;5074993;28;20059;-49
2022/09/06 04:24:08;;;;;;;3.30;1.77;;;;;;;;;;5074860;28;20127;-50
2022/09/06 04:26:38;;;;;;;4.15;1.70;;;;;;;;;;5072655;28;20053;-51
2022/09/06 04:29:07;;;;;;;10.18;2.15;;;;;;;;;;5074624;28;20102;-49
2022/09/06 04:31:37;;;;;;;4.90;1.92;;;;;;;;;;5074195;28;20529;-49
2022/09/06 04:34:12;;;;;;;4.10;1.55;;;;;;;;;;5074213;28;20080;-49
2022/09/06 04:36:42;;;;;;;5.22;1.55;;;;;;;;;;5074478;28;20045;-51
2022/09/06 04:39:12;;;;;;;4.13;1.33;;;;;;;;;;5073329;28;20095;-48
2022/09/06 04:41:43;;;;;;;3.83;1.73;;;;;;;;;;5053642;28;20397;-49
2022/09/06 04:44:12;;;;;;;4.80;1.75;;;;;;;;;;5054426;28;20049;-50
2022/09/06 04:46:50;;;;;;;3.92;1.88;;;;;;;;;;5054474;28;20091;-49
2022/09/06 04:49:34;;;;;;;4.93;1.50;;;;;;;;;;5054422;28;20056;-51
2022/09/06 04:52:03;;;;;;;6.72;2.13;;;;;;;;;;5062889;28;20044;-52
2022/09/06 04:54:31;;;;;;;9.13;2.65;;;;;;;;;;5062430;28;20579;-49
2022/09/06 04:57:01;;;;;;;7.28;2.10;;;;;;;;;;5054268;28;20053;-49
2022/09/06 04:59:31;;;;;;;5.88;2.30;;;;;;;;;;5073863;28;20056;-49
2022/09/06 05:02:02;;;;;;;6.70;2.20;;;;;;;;;;5074099;28;20136;-50
2022/09/06 05:04:48;;;;;;;5.30;2.55;;;;;;;;;;5074343;28;20357;-51
2022/09/06 05:07:17;;;;;;;4.97;1.80;;;;;;;;;;5073946;28;20056;-49
2022/09/06 05:09:48;;;;;;;6.78;2.30;;;;;;;;;;5073687;28;20110;-49
2022/09/06 05:12:18;;;;;;;5.30;2.25;;;;;;;;;;5073719;28;20056;-49
2022/09/06 05:14:48;;;;;;;6.68;2.38;;;;;;;;;;5073613;28;20044;-48
2022/09/06 05:17:18;;;;;;;8.07;2.53;;;;;;;;;;5073391;28;20057;-49
2022/09/06 05:20:01;;;;;;;6.40;2.00;;;;;;;;;;5073043;28;20044;-49
2022/09/06 05:22:32;;;;;;;5.22;1.90;;;;;;;;;;5073393;28;20460;-48
2022/09/06 05:25:02;;;;;;;4.00;1.60;;;;;;;;;;5073797;28;20040;-51
2022/09/06 05:27:32;;;;;;;2.03;1.08;;;;;;;;;;5071610;28;20521;-50
2022/09/06 05:30:02;;;;;;;4.03;1.58;;;;;;;;;;5052590;28;20052;-48
2022/09/06 05:32:32;;;;;;;4.30;1.23;;;;;;;;;;5061075;28;20048;-50
2022/09/06 05:35:16;;;;;;;1.98;0.95;;;;;;;;;;5073559;28;20048;-48
2022/09/06 05:37:46;;;;;;;5.50;1.20;;;;;;;;;;5073446;28;20056;-49
2022/09/06 05:40:21;;;;;;;4.70;1.10;;;;;;;;;;5073562;28;20075;-51
2022/09/06 05:42:58;;;;;;;2.17;1.17;;;;;;;;;;5073423;28;20044;-50
2022/09/06 05:45:27;;;;;;;1.85;0.98;;;;;;;;;;5073323;28;20044;-50
2022/09/06 05:47:58;;;;;;;2.85;0.88;;;;;;;;;;5073512;28;20044;-52
2022/09/06 05:50:42;;;;;;;6.93;1.38;;;;;;;;;;5073211;28;20052;-52
2022/09/06 05:53:12;;;;;;;8.05;0.93;;;;;;;;;;5073017;28;20134;-50
2022/09/06 05:55:42;;;;;;;3.05;1.00;;;;;;;;;;5072759;28;20515;-50
2022/09/06 05:58:19;;;;;;;2.22;0.75;;;;;;;;;;5073212;28;20052;-50
2022/09/06 06:00:47;;;;;;;9.18;1.40;;;;;;;;;;5073510;28;20066;-50
2022/09/06 06:03:17;;;;;;;3.30;1.10;;;;;;;;;;5073157;28;20123;-50
2022/09/06 06:06:04;;;;;;;2.50;1.02;;;;;;;;;;5072815;28;20060;-52
2022/09/06 06:08:43;;;;;;;6.03;1.30;;;;;;;;;;5068160;28;20414;-55
2022/09/06 06:11:15;;;;;;;2.08;0.70;;;;;;;;;;5069544;28;20502;-50
2022/09/06 06:13:44;;;;;;;1.75;0.82;;;;;;;;;;5069775;28;20094;-50
2022/09/06 06:16:14;;;;;;;1.92;0.50;;;;;;;;;;5070581;28;20048;-51
2022/09/06 06:18:44;;;;;;;1.67;0.60;;;;;;;;;;5070354;28;20045;-50
2022/09/06 06:21:27;;;;;;;1.73;0.70;;;;;;;;;;5070701;28;20056;-51
2022/09/06 06:24:04;;;;;;;13.10;2.22;;;;;;;;;;5070530;28;20044;-51
2022/09/06 06:26:40;;;;;;;1.63;0.63;;;;;;;;;;5067717;28;20149;-53
2022/09/06 06:29:10;;;;;;;2.60;0.65;;;;;;;;;;5070150;28;20083;-51
2022/09/06 06:31:46;;;;;;;4.32;0.80;;;;;;;;;;5070234;28;20052;-51
2022/09/06 06:34:15;;;;;;;5.97;1.08;;;;;;;;;;5069757;28;20072;-51
2022/09/06 06:36:51;;;;;;;2.90;0.93;;;;;;;;;;5070391;28;20056;-51
2022/09/06 06:39:19;;;;;;;2.50;0.73;;;;;;;;;;5069102;28;20048;-51
2022/09/06 06:41:49;;;;;;;2.22;0.90;;;;;;;;;;5070609;28;20048;-50
2022/09/06 06:44:20;;;;;;;1.33;0.52;;;;;;;;;;5070786;28;20135;-50
2022/09/06 06:46:51;;;;;;;2.47;0.70;;;;;;;;;;5069325;28;20044;-51
2022/09/06 06:49:20;;;;;;;1.95;0.70;;;;;;;;;;5070873;28;20070;-50
2022/09/06 06:51:55;;;;;;;3.65;0.95;;;;;;;;;;5070050;28;20831;-51
2022/09/06 06:54:31;;;;;;;2.30;0.60;;;;;;;;;;5069838;28;20057;-50
2022/09/06 06:57:08;;;;;;;2.63;0.60;;;;;;;;;;5068579;28;20721;-49
2022/09/06 06:59:38;;;;;;;7.75;1.45;;;;;;;;;;5069368;28;20469;-50
2022/09/06 07:02:09;;;;;;;2.10;0.60;;;;;;;;;;5070283;28;20049;-51
2022/09/06 07:04:39;;;;;;;1.48;0.80;;;;;;;;;;5070531;28;20067;-49
2022/09/06 07:07:23;;;;;;;1.20;0.60;;;;;;;;;;5070102;28;20082;-53
2022/09/06 07:09:59;;;;;;;3.67;0.85;;;;;;;;;;5069902;28;20102;-49
2022/09/06 07:12:29;;;;;;;5.10;0.80;;;;;;;;;;5070070;28;20048;-50
2022/09/06 07:14:59;;;;;;;0.90;0.40;;;;;;;;;;5070225;28;20106;-49
2022/09/06 07:17:41;;;;;;;4.75;0.63;;;;;;;;;;5070063;28;20538;-50
2022/09/06 07:20:10;;;;;;;3.28;0.73;;;;;;;;;;5073485;28;20055;-49
2022/09/06 07:23:00;;;;;;;2.78;0.50;;;;;;;;;;5074075;28;20052;-49
2022/09/06 07:25:32;;;;;;;1.23;0.50;;;;;;;;;;5072526;28;20040;-50
2022/09/06 07:28:02;;;;;;;0.95;0.50;;;;;;;;;;5071987;28;20162;-52
2022/09/06 07:30:41;;;;;;;0.75;0.50;;;;;;;;;;5072977;28;20069;-48
2022/09/06 07:33:11;;;;;;;0.73;0.30;;;;;;;;;;5070579;28;20143;-51
2022/09/06 07:35:41;;;;;;;0.52;0.32;;;;;;;;;;5072874;28;20491;-52
2022/09/06 07:38:25;;;;;;;3.55;0.50;;;;;;;;;;5073512;28;20127;-50
2022/09/06 07:41:04;;;;;;;0.47;0.30;;;;;;;;;;5072130;28;20055;-50
2022/09/06 07:43:35;;;;;;;0.70;0.40;;;;;;;;;;5071745;28;20063;-51
2022/09/06 07:46:06;;;;;;;0.90;0.40;;;;;;;;;;5073027;28;20416;-53
2022/09/06 07:48:43;;;;;;;0.70;0.30;;;;;;;;;;5072239;28;20113;-49
2022/09/06 07:51:15;;;;;;;0.88;0.50;;;;;;;;;;5072109;28;20473;-50
2022/09/06 07:53:49;;;;;;;0.82;0.40;;;;;;;;;;5073005;28;20358;-50
2022/09/06 07:56:20;;;;;;;0.93;0.30;;;;;;;;;;5073114;28;20084;-49
2022/09/06 07:58:56;;;;;;;1.45;0.30;;;;;;;;;;5073519;28;20052;-50
2022/09/06 08:01:36;;;;;;;1.10;0.38;;;;;;;;;;5073310;28;20059;-50
2022/09/06 08:04:11;;;;;;;71.25;6.18;;;;;;;;;;5072640;28;20074;-50
2022/09/06 08:06:51;;;;;;;;;;;;;;;;;;5073359;28;20386;-53
2022/09/06 08:09:21;;;;;;;1.25;0.40;;;;;;;;;;5072903;28;19928;-51
2022/09/06 08:11:57;;;;;;;1.88;0.40;;;;;;;;;;5073241;28;20046;-50
2022/09/06 08:14:27;;;;;;;1.52;0.63;;;;;;;;;;5071675;28;20118;-52
2022/09/06 08:16:57;;;;;;;0.90;0.30;;;;;;;;;;5073091;28;20056;-51
2022/09/06 08:19:27;;;;;;;0.47;0.30;;;;;;;;;;5071561;28;20049;-52
2022/09/06 08:21:57;;;;;;;0.60;0.30;;;;;;;;;;5072952;28;20048;-51
2022/09/06 08:24:39;;;;;;;1.55;0.40;;;;;;;;;;5072461;28;20049;-51
2022/09/06 08:27:16;;;;;;;1.15;0.30;;;;;;;;;;5072730;28;20048;-50
2022/09/06 08:29:46;;;;;;;1.58;0.77;;;;;;;;;;5071490;28;20142;-51
2022/09/06 08:32:23;;;;;;;1.45;0.25;;;;;;;;;;5071570;28;20086;-51
2022/09/06 08:34:53;;;;;;;0.60;0.40;;;;;;;;;;5072276;28;20075;-51
2022/09/06 08:37:21;;;;;;;0.77;0.30;;;;;;;;;;5072538;28;20131;-50
2022/09/06 08:40:02;;;;;;;1.88;0.30;;;;;;;;;;5069604;28;20127;-50
2022/09/06 08:42:39;;;;;;;0.30;0.20;;;;;;;;;;5072806;28;20080;-50
2022/09/06 08:45:17;;;;;;;24.55;2.35;;;;;;;;;;5071503;28;20114;-50
2022/09/06 08:47:45;;;;;;;2.20;0.32;;;;;;;;;;5071911;28;20060;-50
2022/09/06 08:50:15;;;;;;;0.57;0.17;;;;;;;;;;5071602;28;20048;-50
2022/09/06 08:52:57;;;;;;;3.50;0.40;;;;;;;;;;5072397;28;20048;-51
2022/09/06 08:55:43;;;;;;;0.90;0.28;;;;;;;;;;5071385;28;20053;-50
2022/09/06 08:58:22;;;;;;;0.98;0.32;;;;;;;;;;5071793;28;20067;-50
2022/09/06 09:00:57;;;;;;;0.57;0.30;;;;;;;;;;5069505;28;20566;-50
2022/09/06 09:03:39;;;;;;;1.02;0.30;;;;;;;;;;5071489;28;20053;-48
2022/09/06 09:06:14;;;;;;;2.78;0.40;;;;;;;;;;5071509;28;20049;-49
2022/09/06 09:08:46;;;;;;;0.47;0.20;;;;;;;;;;5071606;28;20071;-49
2022/09/06 09:11:20;;;;;;;1.35;0.30;;;;;;;;;;5069813;28;20056;-49
2022/09/06 09:14:04;;;;;;;1.30;0.30;;;;;;;;;;5072265;28;20044;-49
2022/09/06 09:16:51;;;;;;;0.70;0.30;;;;;;;;;;5071240;28;20461;-49
2022/09/06 09:19:22;;;;;;;1.42;0.30;;;;;;;;;;5071754;28;20378;-49
2022/09/06 09:24:39;;;;;;;60.35;5.20;;;;;;;;;;5070585;28;20049;-50
2022/09/06 09:27:11;;;;;;;2.40;0.50;;;;;;;;;;5070094;28;20056;-50
2022/09/06 09:30:00;;;;;;;3.53;0.35;;;;;;;;;;5071016;28;20447;-49
2022/09/06 09:35:39;;;;;;;0.90;0.20;;;;;;;;;;5070728;28;20041;-49
2022/09/06 09:38:23;;;;;;;0.57;0.20;;;;;;;;;;5069662;28;20040;-49
2022/09/06 09:40:55;;;;;;;0.80;0.30;;;;;;;;;;5070377;28;20048;-48
2022/09/06 09:43:23;;;;;;;3.60;0.30;;;;;;;;;;5070824;28;20083;-51
2022/09/06 09:46:11;;;;;;;2.25;0.30;;;;;;;;;;5067751;28;20527;-48
2022/09/06 09:48:48;;;;;;;0.68;0.20;;;;;;;;;;5071511;28;20143;-50
2022/09/06 09:51:24;;;;;;;1.00;0.30;;;;;;;;;;5070897;28;20063;-50
2022/09/06 09:54:14;;;;;;;1.08;0.40;;;;;;;;;;5071503;28;20137;-50
2022/09/06 09:56:48;;;;;;;0.68;0.22;;;;;;;;;;5070770;28;20059;-49
2022/09/06 09:59:31;;;;;;;0.60;0.25;;;;;;;;;;5070871;28;20056;-49
2022/09/06 10:02:08;;;;;;;0.50;0.10;;;;;;;;;;5070512;28;20354;-49
2022/09/06 10:04:40;;;;;;;0.88;0.40;;;;;;;;;;5070637;28;20460;-49
2022/09/06 10:07:15;;;;;;;0.90;0.40;;;;;;;;;;5065100;28;20126;-49
2022/09/06 10:09:51;;;;;;;1.10;0.30;;;;;;;;;;5069206;28;20487;-48
2022/09/06 10:12:21;;;;;;;0.35;0.20;;;;;;;;;;5070504;28;20523;-49
2022/09/06 10:14:52;;;;;;;0.77;0.30;;;;;;;;;;5073560;28;20040;-46
2022/09/06 10:17:22;;;;;;;0.45;0.45;;;;;;;;;;5071016;28;20056;-47
2022/09/06 10:19:52;;;;;;;3.25;0.40;;;;;;;;;;5069742;28;20131;-47
2022/09/06 10:22:38;;;;;;;1.58;0.30;;;;;;;;;;5070616;28;20152;-48
2022/09/06 10:25:31;;;;;;;1.23;0.22;;;;;;;;;;5069122;28;20048;-50
2022/09/06 10:28:17;;;;;;;0.40;0.20;;;;;;;;;;5066131;28;20048;-48
2022/09/06 10:30:48;;;;;;;0.80;0.30;;;;;;;;;;5070022;28;20392;-49
2022/09/06 10:33:46;;;;;;;3.85;0.82;;;;;;;;;;5070397;28;20137;-50
2022/09/06 10:36:28;;;;;;;0.32;0.20;;;;;;;;;;5070140;28;20044;-51
2022/09/06 10:38:58;;;;;;;3.33;0.40;;;;;;;;;;5070492;28;20053;-49
2022/09/06 10:41:35;;;;;;;5.72;0.93;;;;;;;;;;5069893;28;20054;-48
2022/09/06 10:44:20;;;;;;;1.00;0.32;;;;;;;;;;5069141;28;20048;-49
2022/09/06 10:46:58;;;;;;;6.90;0.50;;;;;;;;;;5068758;28;20071;-53
2022/09/06 10:49:28;;;;;;;0.90;0.30;;;;;;;;;;5070154;28;20051;-50
2022/09/06 10:51:57;;;;;;;0.98;0.47;;;;;;;;;;5068189;28;20063;-48
2022/09/06 10:54:28;;;;;;;0.55;0.28;;;;;;;;;;5072526;28;20076;-48
2022/09/06 10:56:58;;;;;;;0.50;0.20;;;;;;;;;;5074261;28;20063;-49
2022/09/06 10:59:29;;;;;;;2.00;0.30;;;;;;;;;;5072933;28;20044;-49
2022/09/06 11:02:12;;;;;;;0.32;0.22;;;;;;;;;;5072053;28;20060;-48
2022/09/06 11:04:51;;;;;;;0.65;0.22;;;;;;;;;;5073597;28;20040;-49
2022/09/06 11:07:27;;;;;;;9.00;0.88;;;;;;;;;;5073476;28;20056;-49
2022/09/06 11:09:58;;;;;;;0.93;0.32;;;;;;;;;;5073923;28;20590;-52
2022/09/06 11:12:39;;;;;;;1.58;0.30;;;;;;;;;;5068758;28;20059;-50
2022/09/06 11:15:12;;;;;;;2.53;0.30;;;;;;;;;;5073486;28;20067;-51
2022/09/06 11:17:45;;;;;;;0.75;0.20;;;;;;;;;;5072698;28;20114;-49
2022/09/06 11:20:32;;;;;;;1.02;0.20;;;;;;;;;;5073526;28;20413;-49
2022/09/06 11:23:12;;;;;;;1.20;0.20;;;;;;;;;;5072127;28;20048;-51
2022/09/06 11:26:09;;;;;;;0.28;0.15;;;;;;;;;;5072531;28;20137;-51
2022/09/06 11:28:40;;;;;;;0.30;0.25;;;;;;;;;;5074074;28;20056;-50
2022/09/06 11:31:39;;;;;;;0.40;0.30;;;;;;;;;;5071281;28;20054;-50
2022/09/06 11:34:19;;;;;;;0.50;0.30;;;;;;;;;;5072594;28;20193;-52
2022/09/06 11:37:05;;;;;;;0.20;0.20;;;;;;;;;;5072854;28;20159;-51
2022/09/06 11:39:43;;;;;;;2.35;0.30;;;;;;;;;;5071342;28;20049;-50
2022/09/06 11:42:36;;;;;;;0.45;0.20;;;;;;;;;;5073004;28;20144;-49
2022/09/06 11:45:29;;;;;;;0.65;0.20;;;;;;;;;;5070693;28;20068;-50
2022/09/06 11:48:21;;;;;;;0.90;0.30;;;;;;;;;;5073198;28;20114;-50
2022/09/06 11:51:18;;;;;;;0.77;0.30;;;;;;;;;;5073345;28;20075;-51
2022/09/06 11:54:06;;;;;;;5.10;0.47;;;;;;;;;;5072550;28;20052;-51
2022/09/06 11:56:51;;;;;;;0.52;0.20;;;;;;;;;;5073450;28;20049;-52
2022/09/06 11:59:36;;;;;;;11.95;0.90;;;;;;;;;;5071697;28;20056;-52
2022/09/06 12:02:31;;;;;;;3.55;0.30;;;;;;;;;;5071245;28;20127;-51
2022/09/06 12:05:14;;;;;;;1.20;0.25;;;;;;;;;;5072800;28;20044;-50
2022/09/06 12:08:01;;;;;;;0.20;0.10;;;;;;;;;;5072013;28;20693;-54
2022/09/06 12:10:49;;;;;;;0.40;0.20;;;;;;;;;;5059811;28;20060;-54
2022/09/06 12:13:37;;;;;;;0.38;0.15;;;;;;;;;;5071726;28;20060;-50
2022/09/06 12:16:08;;;;;;;0.60;0.30;;;;;;;;;;5072493;28;20123;-50
2022/09/06 12:19:05;;;;;;;0.63;0.25;;;;;;;;;;5071154;28;20056;-49
2022/09/06 12:21:51;;;;;;;1.63;0.30;;;;;;;;;;5073244;28;20052;-50
2022/09/06 12:24:48;;;;;;;4.43;0.30;;;;;;;;;;5072442;28;20056;-49
2022/09/06 12:27:25;;;;;;;0.65;0.20;;;;;;;;;;5071065;28;20167;-49
2022/09/06 12:30:11;;;;;;;0.85;0.20;;;;;;;;;;5072425;28;20048;-50
2022/09/06 12:32:42;;;;;;;17.37;1.47;;;;;;;;;;5072172;28;20053;-49
2022/09/06 12:35:15;;;;;;;1.52;0.32;;;;;;;;;;5072082;28;20056;-50
2022/09/06 12:38:00;;;;;;;0.52;0.20;;;;;;;;;;5071889;28;20048;-49
2022/09/06 12:40:36;;;;;;;2.08;0.30;;;;;;;;;;5071519;28;20058;-51
2022/09/06 12:43:07;;;;;;;9.02;1.05;;;;;;;;;;5071572;28;20503;-50
2022/09/06 12:45:37;;;;;;;1.00;0.30;;;;;;;;;;5072351;28;20048;-50
2022/09/06 12:48:06;;;;;;;0.38;0.30;;;;;;;;;;5073025;28;20098;-49
2022/09/06 12:50:37;;;;;;;2.05;0.50;;;;;;;;;;5070258;28;20056;-51
2022/09/06 12:53:23;;;;;;;1.88;0.30;;;;;;;;;;5072408;28;20048;-50
2022/09/06 12:56:06;;;;;;;3.80;0.40;;;;;;;;;;5071725;28;20464;-50
2022/09/06 12:58:43;;;;;;;0.98;0.30;;;;;;;;;;5065286;28;20632;-51
2022/09/06 13:01:18;;;;;;;4.28;0.60;;;;;;;;;;5071583;28;20820;-50
2022/09/06 13:03:52;;;;;;;0.57;0.20;;;;;;;;;;5064651;28;20135;-48
2022/09/06 13:06:23;;;;;;;1.07;0.30;;;;;;;;;;5071181;28;20078;-51
2022/09/06 13:08:54;;;;;;;0.60;0.30;;;;;;;;;;5073823;28;20302;-49
2022/09/06 13:11:24;;;;;;;0.90;0.38;;;;;;;;;;5071772;28;20056;-50
2022/09/06 13:13:52;;;;;;;1.17;0.40;;;;;;;;;;5073070;28;20052;-48
2022/09/06 13:16:21;;;;;;;2.92;0.30;;;;;;;;;;5072119;28;20060;-50
2022/09/06 13:18:47;;;;;;;0.73;0.20;;;;;;;;;;5071406;28;20520;-49
2022/09/06 13:21:23;;;;;;;2.20;0.38;;;;;;;;;;5071945;28;20512;-50
2022/09/06 13:23:52;;;;;;;5.10;0.70;;;;;;;;;;5072127;28;20076;-50
2022/09/06 13:26:31;;;;;;;6.25;0.75;;;;;;;;;;5071359;28;20054;-50
2022/09/06 13:29:08;;;;;;;3.38;0.47;;;;;;;;;;5071578;28;20492;-50
2022/09/06 13:31:34;;;;;;;57.85;4.57;;;;;;;;;;5071308;28;20143;-49
2022/09/06 13:34:01;;;;;;;1.98;0.60;;;;;;;;;;5071487;28;20048;-49
2022/09/06 13:36:29;;;;;;;8.93;0.75;;;;;;;;;;5071358;28;20057;-47
2022/09/06 13:38:58;;;;;;;0.47;0.20;;;;;;;;;;5071635;28;20465;-51
2022/09/06 13:41:39;;;;;;;1.15;0.40;;;;;;;;;;5069095;28;20530;-50
2022/09/06 13:44:16;;;;;;;0.77;0.30;;;;;;;;;;5069585;28;20469;-50
2022/09/06 13:46:46;;;;;;;1.40;0.22;;;;;;;;;;5070537;28;20088;-50
2022/09/06 13:49:12;;;;;;;0.88;0.40;;;;;;;;;;5071374;28;20053;-50
2022/09/06 13:51:42;;;;;;;1.13;0.40;;;;;;;;;;5071350;28;20059;-50
2022/09/06 13:54:11;;;;;;;4.93;0.77;;;;;;;;;;5069675;28;20503;-49
2022/09/06 13:56:38;;;;;;;0.82;0.28;;;;;;;;;;5070993;28;20052;-50
2022/09/06 13:59:05;;;;;;;0.68;0.30;;;;;;;;;;5071861;28;20044;-49
2022/09/06 14:01:33;;;;;;;1.45;0.20;;;;;;;;;;5070339;28;20452;-49
2022/09/06 14:04:00;;;;;;;1.55;0.30;;;;;;;;;;5069306;28;20473;-51
2022/09/06 14:06:26;;;;;;;8.45;0.65;;;;;;;;;;5066699;28;20156;-49
2022/09/06 14:08:53;;;;;;;0.60;0.20;;;;;;;;;;5071162;28;20190;-49
2022/09/06 14:11:21;;;;;;;8.73;0.60;;;;;;;;;;5069349;28;20064;-49
2022/09/06 14:13:48;;;;;;;0.32;0.22;;;;;;;;;;5069670;28;20076;-49
2022/09/06 14:16:14;;;;;;;0.65;0.28;;;;;;;;;;5071465;28;20079;-49
2022/09/06 14:18:40;;;;;;;25.17;1.83;;;;;;;;;;5071773;28;20101;-49
2022/09/06 14:21:07;;;;;;;1.23;0.30;;;;;;;;;;5070963;28;20115;-49
2022/09/06 14:23:34;;;;;;;0.35;0.30;;;;;;;;;;5071439;28;20056;-49
2022/09/06 14:26:01;;;;;;;0.50;0.30;;;;;;;;;;5069685;28;20080;-49
2022/09/06 14:28:34;;;;;;;0.38;0.20;;;;;;;;;;5072626;28;20488;-49
2022/09/06 14:31:09;;;;;;;1.15;0.22;;;;;;;;;;5073301;28;20052;-49
2022/09/06 14:33:36;;;;;;;11.27;1.08;;;;;;;;;;5073673;28;20047;-50
2022/09/06 14:36:07;;;;;;;0.80;0.40;;;;;;;;;;5075657;28;20052;-51
2022/09/06 14:38:36;;;;;;;0.63;0.40;;;;;;;;;;5075750;28;20083;-51
2022/09/06 14:41:04;;;;;;;1.95;0.43;;;;;;;;;;5074746;28;20456;-49
2022/09/06 14:43:34;;;;;;;0.70;0.30;;;;;;;;;;5074757;28;20123;-50
2022/09/06 14:46:05;;;;;;;9.52;0.98;;;;;;;;;;5075037;28;20051;-50
2022/09/06 14:48:33;;;;;;;1.52;0.40;;;;;;;;;;5074837;28;20052;-52
2022/09/06 14:51:06;;;;;;;1.83;0.32;;;;;;;;;;5074732;28;20049;-51
2022/09/06 14:53:34;;;;;;;0.52;0.40;;;;;;;;;;5074606;28;20055;-49
2022/09/06 14:56:01;;;;;;;1.42;0.50;;;;;;;;;;5074447;28;20044;-50
2022/09/06 14:58:29;;;;;;;1.70;0.40;;;;;;;;;;5074107;28;20060;-48
2022/09/06 15:01:05;;;;;;;1.40;0.40;;;;;;;;;;5074270;28;20381;-48
2022/09/06 15:03:36;;;;;;;1.02;0.43;;;;;;;;;;5072823;28;20055;-48
2022/09/06 15:06:04;;;;;;;5.78;0.50;;;;;;;;;;5072433;28;20095;-49
2022/09/06 15:08:33;;;;;;;15.68;1.52;;;;;;;;;;5074084;28;20373;-49
2022/09/06 15:10:59;;;;;;;0.98;0.30;;;;;;;;;;5073676;28;20496;-49
2022/09/06 15:13:27;;;;;;;1.10;0.45;;;;;;;;;;5074226;28;20048;-48
2022/09/06 15:15:54;;;;;;;1.00;0.43;;;;;;;;;;5073771;28;20458;-48
2022/09/06 15:18:22;;;;;;;0.98;0.40;;;;;;;;;;5073384;28;20477;-48
2022/09/06 15:20:50;;;;;;;3.78;0.73;;;;;;;;;;5066588;28;20052;-49
2022/09/06 15:23:16;;;;;;;1.08;0.50;;;;;;;;;;5078582;28;20461;-48
2022/09/06 15:25:47;;;;;;;0.70;0.43;;;;;;;;;;5071038;28;20059;-50
2022/09/06 15:28:14;;;;;;;2.65;0.40;;;;;;;;;;5073360;28;20059;-49
2022/09/06 15:30:41;;;;;;;1.95;0.40;;;;;;;;;;5073502;28;20060;-50
2022/09/06 15:33:13;;;;;;;3.88;0.60;;;;;;;;;;5073698;28;20059;-49
2022/09/06 15:35:42;;;;;;;1.48;0.50;;;;;;;;;;5074220;28;20055;-50
2022/09/06 15:38:11;;;;;;;14.60;1.85;;;;;;;;;;5072457;28;20044;-48
2022/09/06 15:40:38;;;;;;;185.90;15.98;;;;;;;;;;5072188;28;20053;-50
2022/09/06 15:43:06;;;;;;;1.55;0.40;;;;;;;;;;5073424;28;20056;-50
2022/09/06 15:45:43;;;;;;;0.75;0.30;;;;;;;;;;5073511;28;20113;-49